createdAt,value
2022-09-28T00:02:21.930Z,999.61
2022-09-28T00:11:58.203Z,999.59
2022-09-28T00:21:35.432Z,999.47
2022-09-28T00:31:12.255Z,999.33
2022-09-28T00:40:49.176Z,999.21
2022-09-28T00:50:26.311Z,999.02
2022-09-28T01:00:02.897Z,998.96
2022-09-28T01:09:39.284Z,998.81
2022-09-28T01:19:15.753Z,998.59
2022-09-28T01:28:52.942Z,998.51
2022-09-28T01:38:29.879Z,998.39
2022-09-28T01:48:06.967Z,998.41
2022-09-28T01:57:43.765Z,998.38
2022-09-28T02:16:57.402Z,998.19
2022-09-28T02:36:10.907Z,997.99
2022-09-28T02:55:24.700Z,997.93
2022-09-28T03:05:01.385Z,997.73
2022-09-28T03:14:38.206Z,997.59
2022-09-28T03:24:15.199Z,997.59
2022-09-28T03:33:52.009Z,997.35
2022-09-28T03:43:29.103Z,997.43
2022-09-28T03:53:06.253Z,997.23
2022-09-28T04:02:43.815Z,997.17
2022-09-28T04:12:21.118Z,996.96
2022-09-28T04:21:58.303Z,996.82
2022-09-28T04:31:35.456Z,996.67
2022-09-28T04:41:12.532Z,996.58
2022-09-28T04:50:47.779Z,996.58
2022-09-28T05:00:24.532Z,996.45
2022-09-28T05:10:01.270Z,996.37
2022-09-28T05:19:37.898Z,996.21
2022-09-28T05:29:14.738Z,996.17
2022-09-28T05:38:51.687Z,996.13
2022-09-28T05:48:28.794Z,996.09
2022-09-28T05:58:05.345Z,996.04
2022-09-28T06:07:42.661Z,995.91
2022-09-28T06:17:19.550Z,995.99
2022-09-28T06:26:56.544Z,995.98
2022-09-28T06:36:33.834Z,995.97
2022-09-28T06:46:10.950Z,995.9
2022-09-28T07:05:25.024Z,995.79
2022-09-28T07:15:01.956Z,995.7
2022-09-28T07:24:38.641Z,995.7
2022-09-28T07:34:15.837Z,995.61
2022-09-28T07:43:52.843Z,995.78
2022-09-28T07:53:30.236Z,995.83
2022-09-28T08:03:08.242Z,995.84
2022-09-28T08:12:46.432Z,995.92
2022-09-28T08:22:23.485Z,995.97
2022-09-28T08:32:01.623Z,996
2022-09-28T08:41:37.100Z,996.09
2022-09-28T08:51:16.987Z,996.13
2022-09-28T09:00:55.428Z,996.2
2022-09-28T09:10:32.364Z,996.23
2022-09-28T09:20:09.401Z,996.36
2022-09-28T09:29:46.937Z,996.46
2022-09-28T09:39:24.927Z,996.45
2022-09-28T09:49:05.833Z,996.43
2022-09-28T09:58:43.367Z,996.66
2022-09-28T10:08:18.609Z,996.85
2022-09-28T10:17:57.492Z,996.92
2022-09-28T10:37:30.292Z,996.93
2022-09-28T10:46:54.552Z,997.29
2022-09-28T10:56:41.912Z,997.34
2022-09-28T11:06:14.935Z,997.4
2022-09-28T11:15:57.387Z,997.35
2022-09-28T11:26:18.268Z,997.18
2022-09-28T11:35:41.041Z,997.38
2022-09-28T11:45:11.875Z,997.39
2022-09-28T11:54:46.698Z,997.43
2022-09-28T12:04:31.204Z,997.4
2022-09-28T12:13:58.045Z,997.48
2022-09-28T12:24:20.490Z,997.36
2022-09-28T12:33:34.165Z,997.47
2022-09-28T12:43:07.127Z,997.58
2022-09-28T12:53:27.740Z,997.49
2022-09-28T13:03:03.861Z,997.5
2022-09-28T13:12:49.414Z,997.4
2022-09-28T13:21:42.796Z,997.88
2022-09-28T13:31:05.549Z,998.15
2022-09-28T13:50:24.313Z,998.15
2022-09-28T14:00:34.264Z,997.84
2022-09-28T14:10:21.917Z,997.82
2022-09-28T14:20:01.108Z,997.95
2022-09-28T14:29:46.978Z,997.96
2022-09-28T14:38:48.688Z,998.27
2022-09-28T14:48:21.187Z,998.36
2022-09-28T15:07:30.060Z,998.5
2022-09-28T15:16:55.493Z,998.61
2022-09-28T15:26:32.028Z,998.67
2022-09-28T15:45:43.538Z,998.89
2022-09-28T16:04:55.558Z,999.12
2022-09-28T16:14:30.984Z,999.21
2022-09-28T16:24:07.219Z,999.32
2022-09-28T16:33:44.030Z,999.42
2022-09-28T16:43:20.144Z,999.54
2022-09-28T16:52:59.269Z,999.66
2022-09-28T17:02:47.230Z,999.74
2022-09-28T17:12:07.644Z,999.9
2022-09-28T17:21:43.131Z,999.93
2022-09-28T17:31:19.311Z,1000.09
2022-09-28T17:40:55.083Z,1000.2
2022-09-28T17:50:31.509Z,1000.28
2022-09-28T18:00:08.059Z,1000.37
2022-09-28T18:19:21.282Z,1000.63
2022-09-28T18:28:57.888Z,1000.68
2022-09-28T18:38:34.643Z,1000.81
2022-09-28T18:48:11.590Z,1000.93
2022-09-28T18:57:48.563Z,1001.04
2022-09-28T19:07:25.875Z,1001.12
2022-09-28T19:17:03.388Z,1001.1
2022-09-28T19:36:15.409Z,1001.26
2022-09-28T19:45:52.710Z,1001.25
2022-09-28T19:55:28.720Z,1001.3
2022-09-28T20:05:05.156Z,1001.45
2022-09-28T20:14:41.531Z,1001.53
2022-09-28T20:24:18.414Z,1001.6
2022-09-28T20:33:55.021Z,1001.7
2022-09-28T20:53:08.232Z,1001.96
2022-09-28T21:02:44.970Z,1002.01
2022-09-28T21:12:21.844Z,1002.04
2022-09-28T21:21:58.793Z,1002.09
2022-09-28T21:31:35.929Z,1002.12
2022-09-28T21:41:13.164Z,1002.13
2022-09-28T21:50:50.934Z,1002.09
2022-09-28T22:00:28.631Z,1002.2
2022-09-28T22:10:05.572Z,1002.21
2022-09-28T22:19:42.951Z,1002.15
2022-09-28T22:29:20.265Z,1002.12
2022-09-28T22:38:57.083Z,1002.12
2022-09-28T22:48:34.000Z,1002.11
2022-09-28T23:07:46.871Z,1002.25
2022-09-28T23:17:23.675Z,1002.22
2022-09-28T23:27:00.154Z,1002.34
2022-09-28T23:36:37.312Z,1002.33
2022-09-28T23:46:17.336Z,1002.33
2022-09-28T23:55:51.148Z,1002.33
